Blue Star 1 — SWET — position and weather

sailwx.info

Track history (hours):
 
Tides and Currents Weather Stations Pressure Air Temp Water Temp Dewpoint Dewpoint Depression Visibility Wind Speed Wind Dir Waves Ship Positions

Blue Star 1

Last reported at 2015-Aug-04 16:12 UTC. Time now 2015-Aug-05 02:26 UTC.
Position N 37°45' E 026°17'.

Length 176 m; draft 6.5 m.

Type: Passenger vessel. MMSI: 239710000.

Date/timePositionNaut miles runAvg speedWind from/ knotsBaromVisibWave heightAir tempDewpointWater temp
2015-Aug-04 16:12N 37°45' E 026°17'1726.0
2015-Aug-04 15:33N 37°40' E 025°56'2525.8
2015-Aug-04 14:34N 37°34' E 025°25'2524.9
2015-Aug-04 13:33N 37°32' E 024°54'5024.9
2015-Aug-04 11:33N 37°37' E 023°51'2222.3
2015-Aug-04 10:33N 37°56' E 023°37'1 0.7
2015-Aug-04 09:33N 37°56' E 023°38'0 0.0
2015-Aug-04 08:33N 37°56' E 023°38'0 0.0
2015-Aug-04 07:33N 37°56' E 023°38'0 0.0
2015-Aug-04 06:33N 37°56' E 023°38'0 0.0
2015-Aug-04 05:34N 37°56' E 023°38'0 0.0
2015-Aug-04 04:33N 37°56' E 023°38'0 0.0
2015-Aug-04 03:34N 37°56' E 023°38'7 6.9
2015-Aug-04 02:33N 37°50' E 023°40'2121.0
2015-Aug-04 01:33N 37°37' E 024°02'7 0.2
2015-Aug-02 19:32N 37°37' E 023°54'2020.7
2015-Aug-02 18:34N 37°52' E 023°37'4 4.3
2015-Aug-02 17:34N 37°56' E 023°38'0 0.0
2015-Aug-02 16:33N 37°56' E 023°38'1918.7
2015-Aug-02 15:33N 37°40' E 023°49'2823.4
2015-Aug-02 14:21N 37°49' E 024°23'19 1.0
2015-Aug-01 19:30N 37°37' E 024°05'2223.1
2015-Aug-01 18:34N 37°45' E 023°40'1111.2
2015-Aug-01 17:33N 37°56' E 023°38'0 0.0
2015-Aug-01 16:33N 37°56' E 023°38'0 0.0
2015-Aug-01 15:33N 37°56' E 023°38'8 7.9
2015-Aug-01 14:33N 37°49' E 023°41'2423.5
2015-Aug-01 13:33N 37°38' E 024°07'2626.2
2015-Aug-01 12:33N 37°54' E 024°33'31 1.8
2015-Jul-31 19:33N 37°37' E 024°00'2322.6
2015-Jul-31 18:33N 37°50' E 023°37'7 6.5
2015-Jul-31 17:33N 37°56' E 023°38'0 0.0
2015-Jul-31 16:33N 37°56' E 023°38'0 0.0
2015-Jul-31 15:33N 37°56' E 023°38'4 4.3
2015-Jul-31 14:33N 37°52' E 023°39'2523.2
2015-Jul-31 13:29N 37°38' E 024°04'1 0.0
2015-Jul-30 19:30N 37°37' E 024°05'2223.2
2015-Jul-30 18:34N 37°45' E 023°39'1111.3
2015-Jul-30 17:33N 37°56' E 023°38'0 0.0
2015-Jul-30 16:33N 37°56' E 023°38'0 0.0
2015-Jul-30 15:33N 37°56' E 023°38'0 0.0
2015-Jul-30 14:33N 37°56' E 023°38'0 0.0
2015-Jul-30 13:33N 37°56' E 023°38'0 0.0
2015-Jul-30 12:33N 37°56' E 023°38'0 0.0
2015-Jul-30 11:33N 37°56' E 023°38'0 0.0
2015-Jul-30 10:33N 37°56' E 023°38'0 0.0
2015-Jul-30 09:33N 37°56' E 023°38'0 0.0
2015-Jul-30 08:33N 37°56' E 023°38'0 0.0
2015-Jul-30 07:33N 37°56' E 023°38'0 0.0
2015-Jul-30 06:33N 37°56' E 023°38'0 0.0
2015-Jul-30 05:33N 37°56' E 023°38'8 7.8
2015-Jul-30 04:34N 37°49' E 023°41'2424.2
2015-Jul-30 03:34N 37°34' E 024°05'3125.2
2015-Jul-30 02:19N 37°32' E 024°44'2025.6
2015-Jul-30 01:34N 37°30' E 025°09'2625.6
2015-Jul-30 00:34N 37°38' E 025°40'2625.7
2015-Jul-29 23:33N 37°43' E 026°12'2423.8
2015-Jul-29 22:33N 37°48' E 026°41'17914.7
2015-Jul-29 10:21N 40°20' E 024°39'2126.3
2015-Jul-29 09:34N 40°38' E 024°26'1818.0
2015-Jul-29 08:33N 40°56' E 024°25'0 0.0
2015-Jul-29 07:33N 40°56' E 024°25'0 0.0
2015-Jul-29 06:34N 40°56' E 024°25'1918.6
2015-Jul-29 05:34N 40°37' E 024°25'2726.3
2015-Jul-29 04:33N 40°14' E 024°43'17314.4
2015-Jul-28 16:33N 37°48' E 026°41'2424.2
2015-Jul-28 15:33N 37°44' E 026°11'2626.1
2015-Jul-28 14:34N 37°36' E 025°40'2525.5
2015-Jul-28 13:34N 37°30' E 025°09'5125.7
2015-Jul-28 11:34N 37°34' E 024°04'2424.5
2015-Jul-28 10:33N 37°47' E 023°38'9 9.3
2015-Jul-28 09:33N 37°56' E 023°38'0 0.0
2015-Jul-28 08:33N 37°56' E 023°38'0 0.0
2015-Jul-28 07:33N 37°56' E 023°38'0 0.0
2015-Jul-28 06:32N 37°56' E 023°38'0 0.0
2015-Jul-28 05:33N 37°56' E 023°38'0 0.0
2015-Jul-28 04:33N 37°56' E 023°38'0 0.0
2015-Jul-28 03:33N 37°56' E 023°38'1110.5
2015-Jul-28 02:33N 37°47' E 023°42'2220.3
2015-Jul-28 01:30N 37°38' E 024°07'2322.6
2015-Jul-28 00:29N 37°52' E 024°30'74 3.1
2015-Jul-27 00:13N 38°04' E 026°02'10121.5
2015-Jul-26 19:33N 37°35' E 024°01'2121.0
2015-Jul-26 18:33N 37°46' E 023°39'1010.2
2015-Jul-26 17:33N 37°56' E 023°38'0 0.0
2015-Jul-26 16:33N 37°56' E 023°38'3 3.3
2015-Jul-26 15:33N 37°53' E 023°38'2323.0
2015-Jul-26 14:33N 37°37' E 023°60'2824.8
2015-Jul-26 13:26N 37°52' E 024°30'3226.0
2015-Jul-26 12:11N 38°13' E 025°01'32 2.0
2015-Jul-25 20:25N 37°53' E 024°30'2526.3
2015-Jul-25 19:27N 37°37' E 024°05'2224.3
2015-Jul-25 18:33N 37°45' E 023°39'1211.5
2015-Jul-25 17:33N 37°56' E 023°38'0 0.0
2015-Jul-25 16:33N 37°56' E 023°38'  
Track history (hours):
 
Tides and Currents Weather Stations Pressure Air Temp Water Temp Dewpoint Dewpoint Depression Visibility Wind Speed Wind Dir Waves Ship Positions

Blue Star 1

Last reported at 2015-Aug-04 16:12 UTC. Time now 2015-Aug-05 02:26 UTC.
Position N 37°45' E 026°17'.

Length 176 m; draft 6.5 m.

Type: Passenger vessel. MMSI: 239710000.

Date/timePositionNaut miles runAvg speedWind from/ knotsBaromVisibWave heightAir tempDewpointWater temp
2015-Aug-04 16:12N 37°45' E 026°17'1726.0
2015-Aug-04 15:33N 37°40' E 025°56'2525.8
2015-Aug-04 14:34N 37°34' E 025°25'2524.9
2015-Aug-04 13:33N 37°32' E 024°54'5024.9
2015-Aug-04 11:33N 37°37' E 023°51'2222.3
2015-Aug-04 10:33N 37°56' E 023°37'1 0.7
2015-Aug-04 09:33N 37°56' E 023°38'0 0.0
2015-Aug-04 08:33N 37°56' E 023°38'0 0.0
2015-Aug-04 07:33N 37°56' E 023°38'0 0.0
2015-Aug-04 06:33N 37°56' E 023°38'0 0.0
2015-Aug-04 05:34N 37°56' E 023°38'0 0.0
2015-Aug-04 04:33N 37°56' E 023°38'0 0.0
2015-Aug-04 03:34N 37°56' E 023°38'7 6.9
2015-Aug-04 02:33N 37°50' E 023°40'2121.0
2015-Aug-04 01:33N 37°37' E 024°02'7 0.2
2015-Aug-02 19:32N 37°37' E 023°54'2020.7
2015-Aug-02 18:34N 37°52' E 023°37'4 4.3
2015-Aug-02 17:34N 37°56' E 023°38'0 0.0
2015-Aug-02 16:33N 37°56' E 023°38'1918.7
2015-Aug-02 15:33N 37°40' E 023°49'2823.4
2015-Aug-02 14:21N 37°49' E 024°23'19 1.0
2015-Aug-01 19:30N 37°37' E 024°05'2223.1
2015-Aug-01 18:34N 37°45' E 023°40'1111.2
2015-Aug-01 17:33N 37°56' E 023°38'0 0.0
2015-Aug-01 16:33N 37°56' E 023°38'0 0.0
2015-Aug-01 15:33N 37°56' E 023°38'8 7.9
2015-Aug-01 14:33N 37°49' E 023°41'2423.5
2015-Aug-01 13:33N 37°38' E 024°07'2626.2
2015-Aug-01 12:33N 37°54' E 024°33'31 1.8
2015-Jul-31 19:33N 37°37' E 024°00'2322.6
2015-Jul-31 18:33N 37°50' E 023°37'7 6.5
2015-Jul-31 17:33N 37°56' E 023°38'0 0.0
2015-Jul-31 16:33N 37°56' E 023°38'0 0.0
2015-Jul-31 15:33N 37°56' E 023°38'4 4.3
2015-Jul-31 14:33N 37°52' E 023°39'2523.2
2015-Jul-31 13:29N 37°38' E 024°04'1 0.0
2015-Jul-30 19:30N 37°37' E 024°05'2223.2
2015-Jul-30 18:34N 37°45' E 023°39'1111.3
2015-Jul-30 17:33N 37°56' E 023°38'0 0.0
2015-Jul-30 16:33N 37°56' E 023°38'0 0.0
2015-Jul-30 15:33N 37°56' E 023°38'0 0.0
2015-Jul-30 14:33N 37°56' E 023°38'0 0.0
2015-Jul-30 13:33N 37°56' E 023°38'0 0.0
2015-Jul-30 12:33N 37°56' E 023°38'0 0.0
2015-Jul-30 11:33N 37°56' E 023°38'0 0.0
2015-Jul-30 10:33N 37°56' E 023°38'0 0.0
2015-Jul-30 09:33N 37°56' E 023°38'0 0.0
2015-Jul-30 08:33N 37°56' E 023°38'0 0.0
2015-Jul-30 07:33N 37°56' E 023°38'0 0.0
2015-Jul-30 06:33N 37°56' E 023°38'0 0.0
2015-Jul-30 05:33N 37°56' E 023°38'8 7.8
2015-Jul-30 04:34N 37°49' E 023°41'2424.2
2015-Jul-30 03:34N 37°34' E 024°05'3125.2
2015-Jul-30 02:19N 37°32' E 024°44'2025.6
2015-Jul-30 01:34N 37°30' E 025°09'2625.6
2015-Jul-30 00:34N 37°38' E 025°40'2625.7
2015-Jul-29 23:33N 37°43' E 026°12'2423.8
2015-Jul-29 22:33N 37°48' E 026°41'17914.7
2015-Jul-29 10:21N 40°20' E 024°39'2126.3
2015-Jul-29 09:34N 40°38' E 024°26'1818.0
2015-Jul-29 08:33N 40°56' E 024°25'0 0.0
2015-Jul-29 07:33N 40°56' E 024°25'0 0.0
2015-Jul-29 06:34N 40°56' E 024°25'1918.6
2015-Jul-29 05:34N 40°37' E 024°25'2726.3
2015-Jul-29 04:33N 40°14' E 024°43'17314.4
2015-Jul-28 16:33N 37°48' E 026°41'2424.2
2015-Jul-28 15:33N 37°44' E 026°11'2626.1
2015-Jul-28 14:34N 37°36' E 025°40'2525.5
2015-Jul-28 13:34N 37°30' E 025°09'5125.7
2015-Jul-28 11:34N 37°34' E 024°04'2424.5
2015-Jul-28 10:33N 37°47' E 023°38'9 9.3
2015-Jul-28 09:33N 37°56' E 023°38'0 0.0
2015-Jul-28 08:33N 37°56' E 023°38'0 0.0
2015-Jul-28 07:33N 37°56' E 023°38'0 0.0
2015-Jul-28 06:32N 37°56' E 023°38'0 0.0
2015-Jul-28 05:33N 37°56' E 023°38'0 0.0
2015-Jul-28 04:33N 37°56' E 023°38'0 0.0
2015-Jul-28 03:33N 37°56' E 023°38'1110.5
2015-Jul-28 02:33N 37°47' E 023°42'2220.3
2015-Jul-28 01:30N 37°38' E 024°07'2322.6
2015-Jul-28 00:29N 37°52' E 024°30'74 3.1
2015-Jul-27 00:13N 38°04' E 026°02'10121.5
2015-Jul-26 19:33N 37°35' E 024°01'2121.0
2015-Jul-26 18:33N 37°46' E 023°39'1010.2
2015-Jul-26 17:33N 37°56' E 023°38'0 0.0
2015-Jul-26 16:33N 37°56' E 023°38'3 3.3
2015-Jul-26 15:33N 37°53' E 023°38'2323.0
2015-Jul-26 14:33N 37°37' E 023°60'2824.8
2015-Jul-26 13:26N 37°52' E 024°30'3226.0
2015-Jul-26 12:11N 38°13' E 025°01'32 2.0
2015-Jul-25 20:25N 37°53' E 024°30'2526.3
2015-Jul-25 19:27N 37°37' E 024°05'2224.3
2015-Jul-25 18:33N 37°45' E 023°39'1211.5
2015-Jul-25 17:33N 37°56' E 023°38'0 0.0
2015-Jul-25 16:33N 37°56' E 023°38'  

Dump ship's entire track history